Time;durP1;ratioP1;P1;durP2;ratioP2;P2;SDS_P1;SDS_P2;PMS_P1;PMS_P2;Temp;Humidity;BMP_temperature;BMP_pressure;BME280_temperature;BME280_humidity;BME280_pressure;Samples;Min_cycle;Max_cycle;Signal;HPM_P1;HPM_P2
2022/05/28 00:00:14;;;;;;;;;;;;;;;21.04;49.89;102393.06;7288590;19;154067;-53
2022/05/28 00:02:41;;;;;;;;;;;;;;;21.04;50.03;102393.91;7287529;19;151926;-53
2022/05/28 00:05:08;;;;;;;;;;;;;;;21.04;49.60;102391.09;7288700;19;152779;-53
2022/05/28 00:07:35;;;;;;;;;;;;;;;21.05;49.61;102386.34;7288925;19;154350;-53
2022/05/28 00:10:01;;;;;;;;;;;;;;;21.05;49.66;102395.63;7287711;19;152080;-54
2022/05/28 00:12:31;;;;;;;;;;;;;;;21.04;49.97;102393.06;7289251;19;152767;-54
2022/05/28 00:14:58;;;;;;;;;;;;;;;21.04;49.73;102388.31;7288633;19;153959;-53
2022/05/28 00:17:24;;;;;;;;;;;;;;;21.03;49.73;102392.22;7296150;19;151920;-54
2022/05/28 00:19:51;;;;;;;;;;;;;;;21.04;50.31;102393.91;7288268;19;153650;-53
2022/05/28 00:22:18;;;;;;;;;;;;;;;21.07;49.86;102398.16;7288898;19;151783;-54
2022/05/28 00:24:45;;;;;;;;;;;;;;;21.07;50.08;102406.59;7287580;19;153615;-54
2022/05/28 00:27:24;;;;;;;;;;;;;;;21.06;50.23;102410.53;7289082;19;153270;-54
2022/05/28 00:29:53;;;;;;;;;;;;;;;21.09;50.51;102401.53;7287320;19;151834;-54
2022/05/28 00:32:20;;;;;;;;;;;;;;;21.07;50.50;102401.81;7289193;19;153319;-54
2022/05/28 00:34:46;;;;;;;;;;;;;;;21.08;50.18;102397.88;7287017;19;153864;-53
2022/05/28 00:37:21;;;;;;;;;;;;;;;21.08;50.08;102397.88;7289756;19;151850;-54
2022/05/28 00:39:47;;;;;;;;;;;;;;;21.10;50.08;102401.25;7294718;19;152620;-54
2022/05/28 00:42:14;;;;;;;;;;;;;;;21.07;50.44;102399.00;7289368;19;152347;-54
2022/05/28 00:44:41;;;;;;;;;;;;;;;21.11;50.21;102390.88;7289193;19;152719;-54
2022/05/28 00:47:13;;;;;;;;;;;;;;;21.09;50.59;102396.75;7288188;19;153464;-53
2022/05/28 00:49:52;;;;;;;;;;;;;;;21.12;50.53;102398.19;7285911;19;152143;-54
2022/05/28 00:52:20;;;;;;;;;;;;;;;21.13;50.52;102406.34;7289040;19;151668;-54
2022/05/28 00:54:47;;;;;;;;;;;;;;;21.11;50.81;102396.47;7287204;19;153393;-54
2022/05/28 00:57:21;;;;;;;;;;;;;;;21.12;50.68;102392.56;7287905;19;151790;-53
2022/05/28 00:59:48;;;;;;;;;;;;;;;21.10;51.40;102400.41;7288667;19;153300;-54
2022/05/28 01:02:24;;;;;;;;;;;;;;;21.09;51.12;102396.75;7290700;19;151987;-54
2022/05/28 01:05:26;;;;;;;;;;;;;;;21.08;51.20;102397.88;7288169;19;152648;-53
2022/05/28 01:07:56;;;;;;;;;;;;;;;21.07;51.00;102384.97;7283273;19;153686;-54
2022/05/28 01:10:26;;;;;;;;;;;;;;;21.08;51.29;102391.41;7283635;19;151671;-53
2022/05/28 01:12:59;;;;;;;;;;;;;;;21.07;50.96;102384.13;7286863;19;151931;-53
2022/05/28 01:15:29;;;;;;;;;;;;;;;21.08;50.97;102380.16;7287307;19;153936;-53
2022/05/28 01:18:01;;;;;;;;;;;;;;;21.08;51.29;102381.00;7287802;19;152258;-53
2022/05/28 01:20:33;;;;;;;;;;;;;;;21.09;51.30;102385.50;7287908;19;153332;-54
2022/05/28 01:23:23;;;;;;;;;;;;;;;21.08;51.49;102382.97;7293293;19;154008;-53
2022/05/28 01:26:10;;;;;;;;;;;;;;;21.06;51.23;102383.25;7286577;19;153459;-54
2022/05/28 01:28:40;;;;;;;;;;;;;;;21.06;51.13;102374.84;7281810;19;153482;-54
2022/05/28 01:31:08;;;;;;;;;;;;;;;21.07;51.14;102384.13;7286014;19;151964;-53
2022/05/28 01:33:35;;;;;;;;;;;;;;;21.06;51.40;102382.41;7287651;19;152750;-53
2022/05/28 01:36:06;;;;;;;;;;;;;;;21.06;51.33;102390.84;7282652;19;153646;-53
2022/05/28 01:38:34;;;;;;;;;;;;;;;21.07;51.16;102384.97;7286352;19;151778;-54
2022/05/28 01:41:02;;;;;;;;;;;;;;;21.07;51.29;102392.53;7284634;19;153495;-54
2022/05/28 01:43:33;;;;;;;;;;;;;;;21.06;51.60;102376.78;7285330;19;153321;-53
2022/05/28 01:46:00;;;;;;;;;;;;;;;21.05;51.31;102367.50;7293507;19;152056;-54
2022/05/28 01:48:27;;;;;;;;;;;;;;;21.05;51.67;102373.13;7284983;19;153395;-54
2022/05/28 01:50:55;;;;;;;;;;;;;;;21.06;51.74;102371.19;7284027;19;151729;-54
2022/05/28 01:56:09;;;;;;;;;;;;;;;21.05;51.16;102358.25;7283513;19;154085;-54
2022/05/28 01:58:37;;;;;;;;;;;;;;;21.05;51.38;102363.84;7283164;19;151747;-54
2022/05/28 02:01:05;;;;;;;;;;;;;;;21.06;51.50;102363.59;7282606;19;153574;-53
2022/05/28 02:03:33;;;;;;;;;;;;;;;21.07;51.73;102356.00;7284775;19;153292;-54
2022/05/28 02:06:00;;;;;;;;;;;;;;;21.08;51.66;102349.25;7284283;19;152411;-54
2022/05/28 02:08:29;;;;;;;;;;;;;;;21.07;51.80;102344.75;7292537;19;152924;-53
2022/05/28 02:11:02;;;;;;;;;;;;;;;21.06;51.44;102340.25;7282228;19;152330;-55
2022/05/28 02:13:38;;;;;;;;;;;;;;;21.06;51.46;102343.06;7286372;19;152752;-54
2022/05/28 02:16:11;;;;;;;;;;;;;;;21.07;51.67;102347.56;7281833;19;154629;-53
2022/05/28 02:18:44;;;;;;;;;;;;;;;21.06;51.37;102343.06;7284654;19;152236;-54
2022/05/28 02:21:17;;;;;;;;;;;;;;;21.07;51.82;102351.22;7283590;19;152768;-54
2022/05/28 02:23:46;;;;;;;;;;;;;;;21.07;51.58;102339.16;7281927;19;154707;-54
2022/05/28 02:26:22;;;;;;;;;;;;;;;21.07;51.79;102333.53;7283341;19;151575;-55
2022/05/28 02:28:49;;;;;;;;;;;;;;;21.07;51.89;102336.34;7284179;19;152746;-54
2022/05/28 02:31:18;;;;;;;;;;;;;;;21.07;51.59;102341.97;7290422;19;153997;-54
2022/05/28 02:33:45;;;;;;;;;;;;;;;21.07;51.90;102341.97;7285343;19;153031;-53
2022/05/28 02:36:12;;;;;;;;;;;;;;;21.06;52.01;102343.91;7283446;19;153230;-53
2022/05/28 02:38:40;;;;;;;;;;;;;;;21.06;52.01;102354.31;7282315;19;152808;-53
2022/05/28 02:41:06;;;;;;;;;;;;;;;21.05;52.13;102342.22;7281053;19;153384;-53
2022/05/28 02:43:33;;;;;;;;;;;;;;;21.07;52.25;102347.56;7281237;19;153440;-53
2022/05/28 02:46:01;;;;;;;;;;;;;;;21.06;52.06;102346.72;7283765;19;152070;-53
2022/05/28 02:48:28;;;;;;;;;;;;;;;21.06;51.82;102343.91;7283670;19;153423;-54
2022/05/28 02:51:00;;;;;;;;;;;;;;;21.07;52.33;102336.34;7279991;19;153294;-53
2022/05/28 02:53:27;;;;;;;;;;;;;;;21.06;52.24;102340.25;7290473;19;151788;-54
2022/05/28 02:55:54;;;;;;;;;;;;;;;21.05;52.41;102344.19;7279753;19;152727;-53
2022/05/28 02:58:20;;;;;;;;;;;;;;;21.05;52.80;102339.41;7281499;19;152911;-54
2022/05/28 03:00:47;;;;;;;;;;;;;;;21.05;52.28;102347.84;7283782;19;153087;-54
2022/05/28 03:03:19;;;;;;;;;;;;;;;21.06;52.44;102338.28;7279712;19;153147;-54
2022/05/28 03:05:49;;;;;;;;;;;;;;;21.05;52.60;102345.03;7283547;19;151921;-53
2022/05/28 03:08:16;;;;;;;;;;;;;;;21.06;52.16;102345.88;7283416;19;152676;-53
2022/05/28 03:10:43;;;;;;;;;;;;;;;21.05;52.39;102347.00;7277779;19;153516;-54
2022/05/28 03:13:10;;;;;;;;;;;;;;;21.03;52.30;102344.44;7289632;19;153199;-52
2022/05/28 03:15:37;;;;;;;;;;;;;;;21.04;52.05;102345.31;7280207;19;153293;-54
2022/05/28 03:18:04;;;;;;;;;;;;;;;21.03;52.17;102341.66;7280327;19;152152;-54
2022/05/28 03:20:31;;;;;;;;;;;;;;;21.03;52.47;102343.63;7283287;19;152743;-53
2022/05/28 03:22:58;;;;;;;;;;;;;;;21.02;52.41;102342.78;7287240;19;153898;-53
2022/05/28 03:25:25;;;;;;;;;;;;;;;21.02;52.21;102341.94;7288335;19;151818;-53
2022/05/28 03:27:52;;;;;;;;;;;;;;;21.00;52.51;102345.03;7289000;19;153435;-55
2022/05/28 03:30:19;;;;;;;;;;;;;;;20.99;52.41;102342.47;7287566;19;153523;-54
2022/05/28 03:32:45;;;;;;;;;;;;;;;21.01;52.49;102340.25;7288678;19;151971;-53
2022/05/28 03:35:12;;;;;;;;;;;;;;;21.00;52.54;102339.41;7295899;19;152567;-54
2022/05/28 03:37:39;;;;;;;;;;;;;;;20.99;52.00;102336.84;7288618;19;151669;-54
2022/05/28 03:40:06;;;;;;;;;;;;;;;20.98;52.00;102332.38;7287478;19;152629;-54
2022/05/28 03:42:32;;;;;;;;;;;;;;;20.96;52.01;102341.09;7287551;19;153917;-54
2022/05/28 03:44:59;;;;;;;;;;;;;;;20.96;52.00;102348.66;7288393;19;151543;-53
2022/05/28 03:47:26;;;;;;;;;;;;;;;20.97;51.96;102351.22;7290058;19;152786;-54
2022/05/28 03:49:52;;;;;;;;;;;;;;;20.97;52.08;102341.94;7284758;19;153940;-54
2022/05/28 03:52:19;;;;;;;;;;;;;;;20.94;52.45;102337.69;7288496;19;152205;-53
2022/05/28 03:54:46;;;;;;;;;;;;;;;20.95;51.92;102346.97;7288379;19;153422;-53
2022/05/28 03:57:14;;;;;;;;;;;;;;;20.94;52.33;102339.69;7293795;19;154129;-54
2022/05/28 03:59:41;;;;;;;;;;;;;;;20.94;51.97;102343.31;7289023;19;152999;-54
2022/05/28 04:02:08;;;;;;;;;;;;;;;20.94;51.88;102342.50;7285773;19;153334;-54
2022/05/28 04:04:34;;;;;;;;;;;;;;;20.94;51.79;102342.50;7288914;19;151917;-54
2022/05/28 04:07:01;;;;;;;;;;;;;;;20.94;52.29;102342.50;7287164;19;153194;-54
2022/05/28 04:09:28;;;;;;;;;;;;;;;20.91;51.95;102338.25;7288196;19;154130;-54
2022/05/28 04:11:55;;;;;;;;;;;;;;;20.92;52.41;102341.91;7287008;19;151948;-53
2022/05/28 04:14:22;;;;;;;;;;;;;;;20.94;51.90;102345.31;7287195;19;152630;-53
2022/05/28 04:16:49;;;;;;;;;;;;;;;20.94;52.42;102340.50;7284592;19;154527;-54
2022/05/28 04:19:15;;;;;;;;;;;;;;;20.94;52.37;102351.75;7293684;19;151880;-54
2022/05/28 04:21:42;;;;;;;;;;;;;;;20.94;52.40;102340.50;7287896;19;154095;-54
2022/05/28 04:24:09;;;;;;;;;;;;;;;20.94;51.94;102348.13;7286859;19;151862;-54
2022/05/28 04:26:36;;;;;;;;;;;;;;;20.92;51.93;102344.72;7286062;19;153750;-53
2022/05/28 04:29:03;;;;;;;;;;;;;;;20.91;52.18;102343.88;7285599;19;154135;-53
2022/05/28 04:31:29;;;;;;;;;;;;;;;20.91;52.24;102352.31;7284370;19;152108;-53
2022/05/28 04:33:56;;;;;;;;;;;;;;;20.92;51.87;102353.16;7284423;19;152731;-54
2022/05/28 04:36:23;;;;;;;;;;;;;;;20.90;52.29;102344.13;7285314;19;154166;-53
2022/05/28 04:39:04;;;;;;;;;;;;;;;20.91;52.35;102352.31;7287348;19;152111;-54
2022/05/28 04:41:32;;;;;;;;;;;;;;;20.88;51.99;102346.41;7294199;19;152742;-53
2022/05/28 04:43:59;;;;;;;;;;;;;;;20.92;52.06;102350.34;7287950;19;152356;-53
2022/05/28 04:46:26;;;;;;;;;;;;;;;20.91;52.11;102348.66;7285066;19;152984;-53
2022/05/28 04:49:00;;;;;;;;;;;;;;;20.90;51.98;102349.75;7283601;19;152214;-54
2022/05/28 04:51:27;;;;;;;;;;;;;;;20.90;52.03;102350.59;7284712;19;153029;-54
2022/05/28 04:53:54;;;;;;;;;;;;;;;20.92;51.89;102350.34;7285181;19;153067;-54
2022/05/28 04:56:20;;;;;;;;;;;;;;;20.91;51.60;102357.06;7287160;19;154167;-53
2022/05/28 04:58:58;;;;;;;;;;;;;;;20.89;52.04;102348.94;7285814;19;152663;-54
2022/05/28 05:01:31;;;;;;;;;;;;;;;20.88;51.69;102350.06;7285103;19;152841;-54
2022/05/28 05:03:58;;;;;;;;;;;;;;;20.86;52.03;102350.31;7293342;19;153032;-54
2022/05/28 05:06:25;;;;;;;;;;;;;;;20.86;51.71;102361.56;7286469;19;152729;-54
2022/05/28 05:08:59;;;;;;;;;;;;;;;20.85;51.93;102357.06;7285366;19;153136;-53
2022/05/28 05:11:36;;;;;;;;;;;;;;;20.84;51.77;102351.72;7284430;19;151817;-53
2022/05/28 05:14:02;;;;;;;;;;;;;;;20.81;51.63;102355.94;7284862;19;153300;-53
2022/05/28 05:16:29;;;;;;;;;;;;;;;20.81;51.70;102361.53;7285441;19;153950;-54
2022/05/28 05:19:05;;;;;;;;;;;;;;;20.81;51.93;102361.53;7285629;19;152654;-53
2022/05/28 05:21:32;;;;;;;;;;;;;;;20.80;52.09;102362.66;7285578;19;153944;-54
2022/05/28 05:23:58;;;;;;;;;;;;;;;20.80;51.56;102365.47;7291987;19;153275;-54
2022/05/28 05:26:25;;;;;;;;;;;;;;;20.79;51.58;102362.94;7285064;19;153395;-53
2022/05/28 05:29:03;;;;;;;;;;;;;;;20.78;51.99;102359.28;7283633;19;153182;-53
2022/05/28 05:31:36;;;;;;;;;;;;;;;20.80;51.59;102356.22;7283995;19;152156;-54
2022/05/28 05:34:04;;;;;;;;;;;;;;;20.79;51.98;102358.19;7285133;19;152872;-54
2022/05/28 05:36:30;;;;;;;;;;;;;;;20.78;52.38;102359.28;7284708;19;153168;-54
2022/05/28 05:39:04;;;;;;;;;;;;;;;20.78;51.92;102361.25;7283831;19;152122;-54
2022/05/28 05:41:31;;;;;;;;;;;;;;;20.78;52.25;102359.28;7284293;19;152954;-53
2022/05/28 05:43:58;;;;;;;;;;;;;;;20.78;52.40;102367.72;7285659;19;153741;-54
2022/05/28 05:46:24;;;;;;;;;;;;;;;20.78;51.76;102364.06;7292741;19;152110;-53
2022/05/28 05:48:53;;;;;;;;;;;;;;;20.78;52.02;102364.91;7285605;19;154311;-54
2022/05/28 05:51:37;;;;;;;;;;;;;;;20.78;52.11;102355.63;7281933;19;152431;-53
2022/05/28 05:54:03;;;;;;;;;;;;;;;20.77;52.35;102354.78;7283407;19;153001;-54
2022/05/28 05:56:30;;;;;;;;;;;;;;;20.77;51.80;102353.94;7284238;19;153985;-54
2022/05/28 05:59:04;;;;;;;;;;;;;;;20.77;51.96;102363.22;7285004;19;151671;-53
2022/05/28 06:01:31;;;;;;;;;;;;;;;20.78;52.06;102358.44;7284143;19;153167;-54
2022/05/28 06:03:58;;;;;;;;;;;;;;;20.76;52.33;102367.13;7283298;19;154307;-53
2022/05/28 06:06:25;;;;;;;;;;;;;;;20.78;52.18;102353.69;7284546;19;152051;-54
2022/05/28 06:09:05;;;;;;;;;;;;;;;20.77;51.99;102363.22;7290108;19;153626;-53
2022/05/28 06:11:35;;;;;;;;;;;;;;;20.77;52.56;102366.03;7283991;19;151939;-54
2022/05/28 06:14:03;;;;;;;;;;;;;;;20.77;52.15;102365.19;7282932;19;153714;-53
2022/05/28 06:16:30;;;;;;;;;;;;;;;20.75;52.39;102359.84;7283080;19;153486;-54
2022/05/28 06:19:04;;;;;;;;;;;;;;;20.74;52.35;102358.16;7285057;19;151636;-54
2022/05/28 06:21:30;;;;;;;;;;;;;;;20.75;52.23;102365.47;7284000;19;154396;-54
2022/05/28 06:23:59;;;;;;;;;;;;;;;20.75;52.38;102362.66;7283317;19;153257;-53
2022/05/28 06:26:26;;;;;;;;;;;;;;;20.73;52.48;102362.09;7284460;19;151742;-54
2022/05/28 06:29:06;;;;;;;;;;;;;;;20.74;52.52;102358.16;7285632;19;152845;-54
2022/05/28 06:31:35;;;;;;;;;;;;;;;20.74;52.68;102363.78;7286933;19;153463;-54
2022/05/28 06:34:02;;;;;;;;;;;;;;;20.77;52.41;102357.59;7283353;19;152637;-54
2022/05/28 06:36:29;;;;;;;;;;;;;;;20.76;52.11;102363.47;7281212;19;153958;-54
2022/05/28 06:39:03;;;;;;;;;;;;;;;20.74;52.50;102358.16;7284156;19;151801;-54
2022/05/28 06:41:30;;;;;;;;;;;;;;;20.73;52.13;102350.84;7282713;19;153442;-54
2022/05/28 06:43:57;;;;;;;;;;;;;;;20.72;52.64;102346.34;7281101;19;153203;-55
2022/05/28 06:46:24;;;;;;;;;;;;;;;20.71;52.39;102350.28;7282676;19;151812;-53
2022/05/28 06:48:53;;;;;;;;;;;;;;;20.70;52.11;102345.78;7283283;19;152710;-53
2022/05/28 06:51:29;;;;;;;;;;;;;;;20.70;52.34;102344.94;7281155;19;152104;-54
2022/05/28 06:53:56;;;;;;;;;;;;;;;20.80;52.01;102333.75;7289761;19;151773;-53
2022/05/28 06:56:22;;;;;;;;;;;;;;;20.74;52.23;102340.47;7286714;19;153373;-54
2022/05/28 06:59:03;;;;;;;;;;;;;;;20.71;52.37;102344.69;7288418;19;153204;-53
2022/05/28 07:01:51;;;;;;;;;;;;;;;20.70;52.57;102348.59;7289102;19;151664;-54
2022/05/28 07:04:35;;;;;;;;;;;;;;;20.70;52.14;102350.56;7289523;19;152231;-54
2022/05/28 07:07:15;;;;;;;;;;;;;;;20.68;52.15;102342.41;7289931;19;151876;-54
2022/05/28 07:09:44;;;;;;;;;;;;;;;20.68;52.55;102342.41;7290188;19;152732;-53
2022/05/28 07:12:14;;;;;;;;;;;;;;;20.68;52.24;102345.22;7287230;19;153212;-54
2022/05/28 07:14:41;;;;;;;;;;;;;;;20.67;52.64;102340.72;7291055;19;151963;-54
2022/05/28 07:17:08;;;;;;;;;;;;;;;20.67;52.60;102342.69;7295683;19;152649;-54
2022/05/28 07:19:34;;;;;;;;;;;;;;;20.66;52.38;102341.84;7289950;19;151618;-54
2022/05/28 07:22:01;;;;;;;;;;;;;;;20.65;52.54;102342.97;7290276;19;153887;-54
2022/05/28 07:24:28;;;;;;;;;;;;;;;20.66;52.47;102344.66;7288834;19;153182;-53
2022/05/28 07:26:55;;;;;;;;;;;;;;;20.66;52.53;102339.03;7290815;19;152466;-54
2022/05/28 07:29:22;;;;;;;;;;;;;;;20.66;52.19;102339.03;7286793;19;152610;-54
2022/05/28 07:31:48;;;;;;;;;;;;;;;20.64;52.45;102341.25;7286761;19;153501;-54
2022/05/28 07:34:15;;;;;;;;;;;;;;;20.65;52.58;102342.13;7290305;19;152175;-53
2022/05/28 07:36:42;;;;;;;;;;;;;;;20.63;52.38;102339.56;7297346;19;152653;-53
2022/05/28 07:39:09;;;;;;;;;;;;;;;20.64;52.63;102335.66;7289273;19;151700;-53
2022/05/28 07:41:36;;;;;;;;;;;;;;;20.65;52.20;102339.31;7289545;19;154226;-53
2022/05/28 07:44:04;;;;;;;;;;;;;;;20.65;52.31;102336.50;7289911;19;153494;-53
2022/05/28 07:46:31;;;;;;;;;;;;;;;20.64;52.34;102346.03;7289159;19;151948;-54
2022/05/28 07:49:07;;;;;;;;;;;;;;;20.64;52.50;102340.41;7288760;19;153392;-54
2022/05/28 07:51:35;;;;;;;;;;;;;;;20.65;52.28;102342.97;7287429;19;154175;-53
2022/05/28 07:54:03;;;;;;;;;;;;;;;20.64;52.71;102341.25;7289394;19;151546;-53
2022/05/28 07:56:29;;;;;;;;;;;;;;;20.65;52.63;102339.31;7290211;19;152627;-54
2022/05/28 07:59:01;;;;;;;;;;;;;;;20.65;52.54;102339.31;7294034;19;153075;-52
2022/05/28 08:01:29;;;;;;;;;;;;;;;20.65;52.94;102339.31;7288468;19;153372;-54
2022/05/28 08:04:02;;;;;;;;;;;;;;;20.66;52.61;102341.00;7287322;19;153301;-53
2022/05/28 08:06:32;;;;;;;;;;;;;;;20.76;52.54;102338.19;7288022;19;152054;-53
2022/05/28 08:09:07;;;;;;;;;;;;;;;20.74;52.48;102338.50;7284254;19;153637;-54
2022/05/28 08:11:34;;;;;;;;;;;;;;;20.73;52.48;102339.63;7287307;19;153822;-54
2022/05/28 08:14:01;;;;;;;;;;;;;;;20.70;52.19;102333.72;7288445;19;151636;-54
2022/05/28 08:16:31;;;;;;;;;;;;;;;20.68;52.25;102333.97;7289627;19;152777;-53
2022/05/28 08:19:01;;;;;;;;;;;;;;;20.67;51.91;102328.66;7287108;19;153718;-54
2022/05/28 08:24:14;;;;;;;;;;;;;;;20.66;52.22;102330.63;7287592;19;153151;-54
2022/05/28 08:26:40;;;;;;;;;;;;;;;20.70;52.08;102333.72;7288205;19;151780;-54
2022/05/28 08:29:07;;;;;;;;;;;;;;;20.74;52.25;102329.22;7288038;19;153253;-53
2022/05/28 08:31:34;;;;;;;;;;;;;;;20.75;52.06;102328.97;7286764;19;153657;-54
2022/05/28 08:34:01;;;;;;;;;;;;;;;20.80;52.38;102328.13;7288785;19;153431;-53
2022/05/28 08:36:28;;;;;;;;;;;;;;;20.85;52.11;102328.97;7286532;19;153807;-54
2022/05/28 08:39:03;;;;;;;;;;;;;;;20.91;52.28;102309.31;7286759;19;153842;-54
2022/05/28 08:41:52;;;;;;;;;;;;;;;20.99;52.20;102314.38;7288172;19;151677;-54
2022/05/28 08:44:22;;;;;;;;;;;;;;;21.05;52.30;102316.09;7290026;19;153473;-54
2022/05/28 08:46:54;;;;;;;;;;;;;;;21.13;52.31;102312.75;7280768;19;152203;-53
2022/05/28 08:49:23;;;;;;;;;;;;;;;21.21;52.16;102317.84;7286298;19;155056;-54
2022/05/28 08:51:52;;;;;;;;;;;;;;;21.28;52.30;102316.44;7285160;19;153310;-53
2022/05/28 08:54:24;;;;;;;;;;;;;;;21.37;51.80;102315.88;7284418;19;152045;-53
2022/05/28 08:56:53;;;;;;;;;;;;;;;21.45;51.53;102312.47;7287676;19;154297;-54
2022/05/28 08:59:23;;;;;;;;;;;;;;;21.53;51.57;102318.38;7283377;19;152770;-54
2022/05/28 09:01:56;;;;;;;;;;;;;;;21.62;51.60;102316.69;7282335;19;151688;-54
2022/05/28 09:04:30;;;;;;;;;;;;;;;21.68;51.17;102317.53;7287092;19;153708;-54
2022/05/28 09:07:02;;;;;;;;;;;;;;;21.77;51.27;102324.28;7293532;19;153603;-53
2022/05/28 09:09:36;;;;;;;;;;;;;;;21.85;51.06;102326.50;7287700;19;152532;-53
2022/05/28 09:12:04;;;;;;;;;;;;;;;21.92;50.56;102320.59;7285607;19;153359;-54
2022/05/28 09:14:33;;;;;;;;;;;;;;;21.99;50.59;102316.38;7285994;19;151681;-54
2022/05/28 09:17:01;;;;;;;;;;;;;;;22.04;50.11;102318.34;7286340;19;153047;-53
2022/05/28 09:19:34;;;;;;;;;;;;;;;22.07;49.36;102329.06;7284797;19;153391;-53
2022/05/28 09:22:00;;;;;;;;;;;;;;;22.09;48.61;102316.38;7286706;19;151847;-53
2022/05/28 09:24:28;;;;;;;;;;;;;;;22.16;48.35;102327.34;7286773;19;153351;-53
2022/05/28 09:26:58;;;;;;;;;;;;;;;22.18;48.04;102334.34;7285903;19;153773;-53
2022/05/28 09:29:40;;;;;;;;;;;;;;;22.17;47.67;102321.41;7294751;19;152103;-54
2022/05/28 09:32:12;;;;;;;;;;;;;;;22.22;47.63;102333.78;7283231;19;153871;-53
2022/05/28 09:34:39;;;;;;;;;;;;;;;22.24;47.03;102321.13;7286547;19;151759;-54
2022/05/28 09:37:08;;;;;;;;;;;;;;;22.27;47.23;102319.69;7285360;19;152784;-54
2022/05/28 09:39:41;;;;;;;;;;;;;;;22.27;47.24;102319.69;7284052;19;152900;-54
2022/05/28 09:42:17;;;;;;;;;;;;;;;22.32;46.65;102328.97;7284607;19;151981;-54
2022/05/28 09:44:50;;;;;;;;;;;;;;;22.33;46.80;102333.47;7285508;19;153399;-53
2022/05/28 09:47:17;;;;;;;;;;;;;;;22.31;46.50;102321.63;7283777;19;154027;-54
2022/05/28 09:49:54;;;;;;;;;;;;;;;22.34;46.29;102328.69;7291695;19;152865;-54
2022/05/28 09:52:30;;;;;;;;;;;;;;;22.38;46.32;102315.72;7282716;19;153388;-54
2022/05/28 09:55:12;;;;;;;;;;;;;;;22.40;46.20;102308.66;7283125;19;152259;-53
2022/05/28 09:57:44;;;;;;;;;;;;;;;22.44;46.31;102309.75;7284349;19;152625;-53
2022/05/28 10:00:11;;;;;;;;;;;;;;;22.54;46.07;102312.53;7284305;19;153727;-54
2022/05/28 10:02:42;;;;;;;;;;;;;;;22.53;45.74;102316.47;7282030;19;151880;-54
2022/05/28 10:05:16;;;;;;;;;;;;;;;22.52;44.72;102305.50;7285338;19;153077;-53
2022/05/28 10:07:46;;;;;;;;;;;;;;;22.58;44.74;102315.59;7256773;19;153127;-53
2022/05/28 10:10:17;;;;;;;;;;;;;;;22.59;43.86;102309.69;7274964;19;152276;-54
2022/05/28 10:12:44;;;;;;;;;;;;;;;22.55;44.05;102308.59;7285880;19;153668;-53
2022/05/28 10:15:12;;;;;;;;;;;;;;;22.61;43.47;102304.63;7282004;19;151721;-52
2022/05/28 10:17:41;;;;;;;;;;;;;;;22.54;42.80;102304.06;7281504;19;153199;-54
2022/05/28 10:20:16;;;;;;;;;;;;;;;22.52;42.65;102297.91;7281402;19;154142;-53
2022/05/28 10:22:44;;;;;;;;;;;;;;;22.45;42.57;102299.34;7281485;19;151977;-53
2022/05/28 10:25:24;;;;;;;;;;;;;;;22.40;42.50;102297.38;7281588;19;152816;-53
2022/05/28 10:27:52;;;;;;;;;;;;;;;22.46;41.07;102301.88;7280576;19;153754;-54
2022/05/28 10:30:22;;;;;;;;;;;;;;;22.43;41.34;102293.16;7278506;19;152424;-55
2022/05/28 10:32:51;;;;;;;;;;;;;;;22.38;40.28;102298.81;7279581;19;153650;-53
2022/05/28 10:35:22;;;;;;;;;;;;;;;22.29;37.86;102289.28;7286261;19;153783;-54
2022/05/28 10:37:49;;;;;;;;;;;;;;;22.26;37.42;102301.94;7281571;19;153063;-54
2022/05/28 10:40:27;;;;;;;;;;;;;;;22.39;37.60;102290.09;7280581;19;153647;-53
2022/05/28 10:42:58;;;;;;;;;;;;;;;22.28;40.06;102294.06;7279915;19;152391;-54
2022/05/28 10:45:30;;;;;;;;;;;;;;;22.28;40.09;102291.25;7279662;19;153606;-54
2022/05/28 10:48:15;;;;;;;;;;;;;;;22.26;41.31;102289.88;7277315;19;152433;-53
2022/05/28 10:50:54;;;;;;;;;;;;;;;22.29;41.90;102292.94;7282084;19;152483;-54
2022/05/28 10:53:22;;;;;;;;;;;;;;;22.28;41.55;102291.25;7262989;19;153234;-54
2022/05/28 10:55:49;;;;;;;;;;;;;;;22.39;42.31;102281.63;7274785;19;153467;-54
2022/05/28 10:58:15;;;;;;;;;;;;;;;22.34;42.50;102281.66;7287691;19;152162;-53
2022/05/28 11:00:54;;;;;;;;;;;;;;;22.40;42.64;102280.47;7275039;19;154920;-53
2022/05/28 11:03:23;;;;;;;;;;;;;;;22.40;43.02;102274.00;7280372;19;151807;-55
2022/05/28 11:06:02;;;;;;;;;;;;;;;22.46;42.72;102275.66;7280737;19;153824;-54
2022/05/28 11:08:29;;;;;;;;;;;;;;;22.44;42.88;102278.78;7276429;19;154143;-54
2022/05/28 11:11:14;;;;;;;;;;;;;;;22.41;43.05;102273.72;7276233;19;152250;-53
2022/05/28 11:14:00;;;;;;;;;;;;;;;22.39;42.99;102275.16;7278264;19;153126;-54
2022/05/28 11:16:38;;;;;;;;;;;;;;;22.38;43.17;102276.28;7278383;19;153991;-53
2022/05/28 11:19:23;;;;;;;;;;;;;;;22.33;43.07;102277.16;7277009;19;152325;-54
2022/05/28 11:22:04;;;;;;;;;;;;;;;22.31;43.09;102276.59;7286284;19;153184;-53
2022/05/28 11:24:41;;;;;;;;;;;;;;;22.29;43.33;102278.00;7280175;19;152149;-53
2022/05/28 11:27:16;;;;;;;;;;;;;;;22.26;43.33;102275.78;7278883;19;153189;-54
2022/05/28 11:30:03;;;;;;;;;;;;;;;22.24;43.49;102273.25;7280078;19;153324;-54
2022/05/28 11:32:42;;;;;;;;;;;;;;;22.22;43.81;102271.84;7275876;19;153167;-53
2022/05/28 11:35:24;;;;;;;;;;;;;;;22.20;44.00;102266.50;7279934;19;153145;-53
2022/05/28 11:37:55;;;;;;;;;;;;;;;22.20;43.98;102258.06;7278680;19;153855;-53
2022/05/28 11:40:24;;;;;;;;;;;;;;;22.25;43.47;102254.38;7279478;19;152192;-54
2022/05/28 11:43:12;;;;;;;;;;;;;;;22.22;43.87;102258.59;7282172;19;153562;-53
2022/05/28 11:45:43;;;;;;;;;;;;;;;22.20;43.72;102257.22;7290888;19;152409;-53
2022/05/28 11:51:27;;;;;;;;;;;;;;;22.20;43.89;102252.44;7289528;19;152620;-53
2022/05/28 11:51:39;;;;;;;;;;;;;;;22.16;44.17;102252.19;7286630;19;154545;-54
2022/05/28 11:54:19;;;;;;;;;;;;;;;22.17;43.82;102250.16;7285014;19;155944;-54
2022/05/28 11:56:51;;;;;;;;;;;;;;;22.14;44.12;102250.75;7288448;19;153543;-54
2022/05/28 11:59:23;;;;;;;;;;;;;;;22.14;43.86;102245.13;7286970;19;154616;-54
2022/05/28 12:01:53;;;;;;;;;;;;;;;22.14;44.36;102242.31;7287961;19;151821;-53
2022/05/28 12:04:19;;;;;;;;;;;;;;;22.11;43.86;102237.28;7289038;19;152779;-53
2022/05/28 12:07:02;;;;;;;;;;;;;;;22.12;43.91;102236.16;7293527;19;154026;-53
2022/05/28 12:09:32;;;;;;;;;;;;;;;22.15;44.05;102232.75;7287635;19;153468;-54
2022/05/28 12:12:05;;;;;;;;;;;;;;;22.12;44.18;102222.88;7285308;19;153257;-54
2022/05/28 12:14:35;;;;;;;;;;;;;;;22.12;43.96;102233.34;7285234;19;152973;-54
2022/05/28 12:17:07;;;;;;;;;;;;;;;22.10;44.30;102232.75;7286408;19;152633;-53
2022/05/28 12:19:42;;;;;;;;;;;;;;;22.09;44.34;102217.84;7284113;19;153725;-53
2022/05/28 12:22:29;;;;;;;;;;;;;;;22.08;44.00;102227.41;7286486;19;151849;-54
2022/05/28 12:24:57;;;;;;;;;;;;;;;22.07;44.29;102227.72;7286273;19;153696;-54
2022/05/28 12:27:25;;;;;;;;;;;;;;;22.05;44.10;102224.34;7284446;19;153964;-53
2022/05/28 12:29:57;;;;;;;;;;;;;;;22.04;44.28;102217.88;7294694;19;152069;-53
2022/05/28 12:32:26;;;;;;;;;;;;;;;22.05;43.96;102213.06;7285438;19;153226;-54
2022/05/28 12:34:59;;;;;;;;;;;;;;;22.07;43.91;102214.50;7287816;19;151785;-53
2022/05/28 12:37:29;;;;;;;;;;;;;;;22.04;44.14;102205.75;7284208;19;152975;-53
2022/05/28 12:40:11;;;;;;;;;;;;;;;22.03;44.23;102209.72;7285134;19;153208;-53
2022/05/28 12:42:38;;;;;;;;;;;;;;;22.03;43.67;102206.91;7287841;19;151972;-54
2022/05/28 12:45:12;;;;;;;;;;;;;;;22.02;44.28;102200.44;7286459;19;153147;-52
2022/05/28 12:47:40;;;;;;;;;;;;;;;22.04;43.84;102200.97;7286270;19;153918;-54
2022/05/28 12:50:10;;;;;;;;;;;;;;;22.06;44.19;102203.50;7285091;19;152800;-54